Time,TemperatureF,DewpointF,PressureIn,WindDirection,WindDirectionDegrees,WindSpeedMPH,WindSpeedGustMPH,Humidity,HourlyPrecipIn,Conditions,Clouds,dailyrainin,SolarRadiationWatts/m^2,SoftwareType,DateUTC
2013-08-22 00:00:00,67.9,64.5,29.83,ENE,57,0.0,7.0,89,0.00,,,0.00,0,Wunderground v.1.15,2013-08-22 07:00:00,
2013-08-22 00:10:00,67.6,64.2,29.83,ENE,57,0.0,7.0,89,0.00,,,0.00,0,Wunderground v.1.15,2013-08-22 07:10:00,
2013-08-22 00:20:00,67.5,64.5,29.83,ENE,57,0.0,7.0,90,0.00,,,0.00,0,Wunderground v.1.15,2013-08-22 07:20:00,
2013-08-22 00:30:00,67.3,64.3,29.83,ENE,57,0.0,7.0,90,0.00,,,0.00,0,Wunderground v.1.15,2013-08-22 07:30:00,
2013-08-22 00:40:00,67.1,64.4,29.83,ENE,57,0.0,7.0,91,0.00,,,0.00,0,Wunderground v.1.15,2013-08-22 07:40:00,
2013-08-22 00:50:00,66.8,64.1,29.83,ENE,57,0.0,7.0,91,0.00,,,0.00,0,Wunderground v.1.15,2013-08-22 07:50:00,
2013-08-22 01:00:00,66.5,63.8,29.82,ENE,57,0.0,7.0,91,0.00,,,0.00,0,Wunderground v.1.15,2013-08-22 08:00:00,
2013-08-22 01:10:00,66.4,63.7,29.82,ENE,57,0.0,7.0,91,0.00,,,0.00,0,Wunderground v.1.15,2013-08-22 08:10:00,
2013-08-22 01:20:00,66.3,63.3,29.82,ENE,57,0.0,7.0,90,0.00,,,0.00,0,Wunderground v.1.15,2013-08-22 08:20:00,
2013-08-22 01:30:00,65.9,62.9,29.82,ENE,57,0.0,7.0,90,0.00,,,0.00,0,Wunderground v.1.15,2013-08-22 08:30:00,
2013-08-22 01:40:00,65.8,62.8,29.82,ENE,57,0.0,7.0,90,0.00,,,0.00,0,Wunderground v.1.15,2013-08-22 08:40:00,
2013-08-22 01:50:00,65.6,62.6,29.83,ENE,57,0.0,7.0,90,0.00,,,0.00,0,Wunderground v.1.15,2013-08-22 08:50:00,
2013-08-22 02:00:00,65.1,62.1,29.83,SSW,211,0.0,7.0,90,0.00,,,0.00,0,Wunderground v.1.15,2013-08-22 09:00:00,
2013-08-22 02:10:00,64.8,61.8,29.83,SW,225,0.0,7.0,90,0.00,,,0.00,0,Wunderground v.1.15,2013-08-22 09:10:00,
2013-08-22 02:20:00,64.7,61.7,29.83,SW,225,0.0,7.0,90,0.00,,,0.00,0,Wunderground v.1.15,2013-08-22 09:20:00,
2013-08-22 02:30:00,64.5,61.5,29.83,SW,225,0.0,7.0,90,0.00,,,0.00,0,Wunderground v.1.15,2013-08-22 09:30:00,
2013-08-22 02:40:00,64.4,61.7,29.83,SW,225,0.0,7.0,91,0.00,,,0.00,0,Wunderground v.1.15,2013-08-22 09:40:00,
2013-08-22 02:50:00,64.3,61.9,29.83,East,82,0.0,7.0,92,0.00,,,0.00,0,Wunderground v.1.15,2013-08-22 09:50:00,
2013-08-22 03:00:00,64.3,61.9,29.83,East,82,0.0,7.0,92,0.00,,,0.00,0,Wunderground v.1.15,2013-08-22 10:00:00,
2013-08-22 03:10:00,64.1,61.7,29.83,East,82,0.0,7.0,92,0.00,,,0.00,0,Wunderground v.1.15,2013-08-22 10:10:00,
2013-08-22 03:20:00,63.9,61.5,29.83,SE,125,0.0,7.0,92,0.00,,,0.00,0,Wunderground v.1.15,2013-08-22 10:20:00,
2013-08-22 03:30:00,63.7,61.3,29.83,SE,126,0.0,7.0,92,0.00,,,0.00,0,Wunderground v.1.15,2013-08-22 10:30:00,
2013-08-22 03:40:00,63.5,61.4,29.82,SE,127,0.0,7.0,93,0.00,,,0.00,0,Wunderground v.1.15,2013-08-22 10:40:00,
2013-08-22 03:50:00,63.4,61.3,29.82,SE,128,0.0,7.0,93,0.00,,,0.00,0,Wunderground v.1.15,2013-08-22 10:50:00,
2013-08-22 05:30:00,62.9,60.8,29.83,SW,227,0.0,7.0,93,0.00,,,0.00,0,Wunderground v.1.15,2013-08-22 12:30:00,
2013-08-22 05:40:00,62.8,60.7,29.83,SW,227,0.0,7.0,93,0.00,,,0.00,0,Wunderground v.1.15,2013-08-22 12:40:00,
2013-08-22 05:50:00,62.7,60.9,29.84,SW,227,0.0,7.0,94,0.00,,,0.00,0,Wunderground v.1.15,2013-08-22 12:50:00,
2013-08-22 06:00:00,62.6,61.4,29.84,SSE,151,0.0,7.0,96,0.00,,,0.00,14,Wunderground v.1.15,2013-08-22 13:00:00,
2013-08-22 06:10:00,62.5,60.7,29.84,SSE,151,0.0,0.0,94,0.00,,,0.00,30,Wunderground v.1.15,2013-08-22 13:10:00,
2013-08-22 06:20:00,62.5,60.7,29.84,SSW,212,0.0,0.0,94,0.00,,,0.00,47,Wunderground v.1.15,2013-08-22 13:20:00,
2013-08-22 06:30:00,62.7,60.9,29.84,SSW,212,0.0,0.0,94,0.00,,,0.00,67,Wunderground v.1.15,2013-08-22 13:30:00,
2013-08-22 06:40:00,63.6,62.1,29.85,ESE,121,0.0,0.0,95,0.00,,,0.00,93,Wunderground v.1.15,2013-08-22 13:40:00,
2013-08-22 06:50:00,64.4,62.9,29.85,WSW,243,0.0,0.0,95,0.00,,,0.00,107,Wunderground v.1.15,2013-08-22 13:50:00,
2013-08-22 07:00:00,65.1,63.6,29.86,SSW,213,0.0,0.0,95,0.00,,,0.00,141,Wunderground v.1.15,2013-08-22 14:00:00,
2013-08-22 07:10:00,65.9,64.1,29.85,SSW,194,0.0,0.0,94,0.00,,,0.00,167,Wunderground v.1.15,2013-08-22 14:10:00,
2013-08-22 07:20:00,67.0,64.9,29.86,SSW,213,0.0,0.0,93,0.00,,,0.00,199,Wunderground v.1.15,2013-08-22 14:20:00,
2013-08-22 07:30:00,68.1,64.7,29.86,SW,214,0.0,0.0,89,0.00,,,0.00,241,Wunderground v.1.15,2013-08-22 14:30:00,
2013-08-22 07:40:00,69.2,65.2,29.87,SW,214,0.0,0.0,87,0.00,,,0.00,269,Wunderground v.1.15,2013-08-22 14:40:00,
2013-08-22 07:50:00,70.7,65.6,29.86,SSE,148,0.0,0.0,84,0.00,,,0.00,308,Wunderground v.1.15,2013-08-22 14:50:00,
2013-08-22 08:00:00,71.7,65.2,29.86,SSE,148,0.0,0.0,80,0.00,,,0.00,341,Wunderground v.1.15,2013-08-22 15:00:00,
2013-08-22 08:10:00,72.6,65.0,29.87,SE,132,0.0,0.0,77,0.00,,,0.00,373,Wunderground v.1.15,2013-08-22 15:10:00,
2013-08-22 08:20:00,73.4,64.6,29.86,SSE,153,0.0,0.0,74,0.00,,,0.00,401,Wunderground v.1.15,2013-08-22 15:20:00,
2013-08-22 08:30:00,74.3,63.9,29.87,SSE,153,0.0,0.0,70,0.00,,,0.00,441,Wunderground v.1.15,2013-08-22 15:30:00,
2013-08-22 08:40:00,75.5,63.3,29.87,SSE,153,0.0,0.0,66,0.00,,,0.00,483,Wunderground v.1.15,2013-08-22 15:40:00,
2013-08-22 08:50:00,76.9,65.1,29.87,South,176,0.0,0.0,67,0.00,,,0.00,520,Wunderground v.1.15,2013-08-22 15:50:00,
2013-08-22 09:00:00,78.0,65.3,29.87,WSW,243,0.0,0.0,65,0.00,,,0.00,548,Wunderground v.1.15,2013-08-22 16:00:00,
2013-08-22 09:10:00,78.9,65.7,29.87,SE,124,0.0,0.0,64,0.00,,,0.00,577,Wunderground v.1.15,2013-08-22 16:10:00,
2013-08-22 09:20:00,80.2,66.5,29.87,SSE,167,0.0,0.0,63,0.00,,,0.00,605,Wunderground v.1.15,2013-08-22 16:20:00,
2013-08-22 09:30:00,81.0,65.3,29.87,SE,141,0.0,0.0,59,0.00,,,0.00,633,Wunderground v.1.15,2013-08-22 16:30:00,
2013-08-22 09:40:00,82.0,64.2,29.86,SE,143,0.0,0.0,55,0.00,,,0.00,659,Wunderground v.1.15,2013-08-22 16:40:00,
2013-08-22 09:50:00,82.9,64.0,29.86,SE,141,0.0,0.0,53,0.00,,,0.00,689,Wunderground v.1.15,2013-08-22 16:50:00,
2013-08-22 10:00:00,83.6,61.8,29.86,West,264,0.0,0.0,48,0.00,,,0.00,708,Wunderground v.1.15,2013-08-22 17:00:00,
2013-08-22 10:10:00,84.2,62.4,29.86,East,93,0.0,0.0,48,0.00,,,0.00,737,Wunderground v.1.15,2013-08-22 17:10:00,
2013-08-22 10:20:00,84.7,61.0,29.86,NE,51,0.0,1.0,45,0.00,,,0.00,759,Wunderground v.1.15,2013-08-22 17:20:00,
2013-08-22 10:30:00,84.3,60.6,29.87,ENE,63,1.0,1.0,45,0.00,,,0.00,780,Wunderground v.1.15,2013-08-22 17:30:00,
2013-08-22 10:40:00,85.1,62.6,29.86,ENE,62,0.0,0.0,47,0.00,,,0.00,798,Wunderground v.1.15,2013-08-22 17:40:00,
2013-08-22 10:50:00,84.8,59.2,29.86,West,273,2.0,2.0,42,0.00,,,0.00,814,Wunderground v.1.15,2013-08-22 17:50:00,
2013-08-22 12:20:00,87.5,58.8,29.83,SE,142,1.0,5.0,38,0.00,,,0.00,895,Wunderground v.1.15,2013-08-22 19:20:00,
2013-08-22 12:30:00,87.9,58.4,29.83,ENE,57,1.0,1.0,37,0.00,,,0.00,902,Wunderground v.1.15,2013-08-22 19:30:00,
2013-08-22 12:40:00,87.5,58.0,29.82,NNE,27,2.0,2.0,37,0.00,,,0.00,904,Wunderground v.1.15,2013-08-22 19:40:00,
2013-08-22 12:50:00,88.0,58.5,29.81,East,84,1.0,1.0,37,0.00,,,0.00,904,Wunderground v.1.15,2013-08-22 19:50:00,
2013-08-22 13:00:00,88.7,58.3,29.81,NE,35,1.0,5.0,36,0.00,,,0.00,911,Wunderground v.1.15,2013-08-22 20:00:00,
2013-08-22 13:10:00,89.4,57.3,29.81,SSE,153,1.0,1.0,34,0.00,,,0.00,918,Wunderground v.1.15,2013-08-22 20:10:00,
2013-08-22 13:20:00,90.6,56.7,29.81,SE,145,1.0,10.0,32,0.00,,,0.00,930,Wunderground v.1.15,2013-08-22 20:20:00,
2013-08-22 13:30:00,90.4,55.6,29.80,ESE,123,3.0,5.0,31,0.00,,,0.00,930,Wunderground v.1.15,2013-08-22 20:30:00,
2013-08-22 13:40:00,90.9,51.3,29.79,ESE,123,2.0,5.0,26,0.00,,,0.00,914,Wunderground v.1.15,2013-08-22 20:40:00,
2013-08-22 13:50:00,90.7,54.1,29.78,SSE,159,5.0,5.0,29,0.00,,,0.00,898,Wunderground v.1.15,2013-08-22 20:50:00,
2013-08-22 14:00:00,91.2,51.5,29.78,ESE,103,5.0,5.0,26,0.00,,,0.00,879,Wunderground v.1.15,2013-08-22 21:00:00,
2013-08-22 14:10:00,91.5,49.6,29.77,ESE,113,5.0,5.0,24,0.00,,,0.00,858,Wunderground v.1.15,2013-08-22 21:10:00,
2013-08-22 14:20:00,91.8,48.7,29.77,East,87,5.0,5.0,23,0.00,,,0.00,847,Wunderground v.1.15,2013-08-22 21:20:00,
2013-08-22 14:30:00,91.6,49.7,29.77,East,83,2.0,2.0,24,0.00,,,0.00,824,Wunderground v.1.15,2013-08-22 21:30:00,
2013-08-22 14:40:00,91.4,48.4,29.76,SE,146,4.0,6.0,23,0.00,,,0.00,749,Wunderground v.1.15,2013-08-22 21:40:00,
2013-08-22 14:50:00,90.9,48.0,29.75,East,81,5.0,5.0,23,0.00,,,0.00,687,Wunderground v.1.15,2013-08-22 21:50:00,
2013-08-22 15:00:00,91.0,48.1,29.75,East,94,4.0,4.0,23,0.00,,,0.00,610,Wunderground v.1.15,2013-08-22 22:00:00,
2013-08-22 15:10:00,90.8,46.7,29.75,East,101,4.0,4.0,22,0.00,,,0.00,626,Wunderground v.1.15,2013-08-22 22:10:00,
2013-08-22 15:20:00,91.6,51.9,29.74,SE,131,2.0,3.0,26,0.00,,,0.00,510,Wunderground v.1.15,2013-08-22 22:20:00,
2013-08-22 15:30:00,90.7,50.0,29.74,SE,144,4.0,4.0,25,0.00,,,0.00,195,Wunderground v.1.15,2013-08-22 22:30:00,
2013-08-22 15:40:00,89.7,47.0,29.74,ENE,78,2.0,2.0,23,0.00,,,0.00,220,Wunderground v.1.15,2013-08-22 22:40:00,
2013-08-22 15:50:00,89.3,50.9,29.73,ESE,107,1.0,1.0,27,0.00,,,0.00,227,Wunderground v.1.15,2013-08-22 22:50:00,
2013-08-22 16:00:00,89.4,55.7,29.74,SSW,209,0.0,0.0,32,0.00,,,0.00,223,Wunderground v.1.15,2013-08-22 23:00:00,
2013-08-22 16:10:00,88.5,54.9,29.73,West,270,1.0,1.0,32,0.00,,,0.00,213,Wunderground v.1.15,2013-08-22 23:10:00,
2013-08-22 16:20:00,87.7,57.4,29.73,SW,234,0.0,11.0,36,0.00,,,0.00,211,Wunderground v.1.15,2013-08-22 23:20:00,
2013-08-22 16:30:00,87.4,57.2,29.72,WSW,241,0.0,11.0,36,0.00,,,0.00,202,Wunderground v.1.15,2013-08-22 23:30:00,
2013-08-22 16:40:00,87.4,57.2,29.72,SSW,213,0.0,11.0,36,0.00,,,0.00,176,Wunderground v.1.15,2013-08-22 23:40:00,
2013-08-22 16:50:00,87.2,57.0,29.72,SSW,203,0.0,11.0,36,0.00,,,0.00,155,Wunderground v.1.15,2013-08-22 23:50:00,
2013-08-22 17:00:00,87.0,59.0,29.72,SSW,202,0.0,11.0,39,0.00,,,0.00,134,Wunderground v.1.15,2013-08-23 00:00:00,
2013-08-22 17:10:00,86.7,59.5,29.72,SSW,203,0.0,0.0,40,0.00,,,0.00,125,Wunderground v.1.15,2013-08-23 00:10:00,
2013-08-22 17:20:00,86.1,60.3,29.72,SSW,206,0.0,0.0,42,0.00,,,0.00,116,Wunderground v.1.15,2013-08-23 00:20:00,
2013-08-22 17:30:00,85.5,59.8,29.72,SSW,207,0.0,0.0,42,0.00,,,0.00,105,Wunderground v.1.15,2013-08-23 00:30:00,
2013-08-22 17:40:00,84.8,59.8,29.72,SSW,207,0.0,0.0,43,0.00,,,0.00,97,Wunderground v.1.15,2013-08-23 00:40:00,
2013-08-22 17:50:00,84.3,60.0,29.71,NE,36,0.0,0.0,44,0.00,,,0.00,81,Wunderground v.1.15,2013-08-23 00:50:00,
2013-08-22 18:00:00,84.0,61.0,29.71,ENE,71,0.0,0.0,46,0.00,,,0.00,67,Wunderground v.1.15,2013-08-23 01:00:00,
2013-08-22 18:10:00,83.7,61.3,29.72,ENE,71,0.0,3.0,47,0.00,,,0.00,44,Wunderground v.1.15,2013-08-23 01:10:00,
2013-08-22 18:20:00,83.1,62.5,29.73,NE,34,0.0,3.0,50,0.00,,,0.00,32,Wunderground v.1.15,2013-08-23 01:20:00,
2013-08-22 18:30:00,82.4,62.5,29.73,NE,34,0.0,3.0,51,0.00,,,0.00,19,Wunderground v.1.15,2013-08-23 01:30:00,
2013-08-22 18:40:00,81.8,61.9,29.74,NE,34,0.0,3.0,51,0.00,,,0.00,7,Wunderground v.1.15,2013-08-23 01:40:00,
2013-08-22 18:50:00,80.7,62.5,29.74,NNE,33,0.0,3.0,54,0.00,,,0.00,0,Wunderground v.1.15,2013-08-23 01:50:00,
2013-08-22 19:00:00,79.8,62.2,29.74,NNE,33,0.0,3.0,55,0.00,,,0.00,0,Wunderground v.1.15,2013-08-23 02:00:00,
2013-08-22 19:10:00,79.2,60.6,29.74,ENE,57,1.0,1.0,53,0.00,,,0.00,0,Wunderground v.1.15,2013-08-23 02:10:00,
2013-08-22 19:20:00,79.0,59.9,29.74,ENE,63,1.0,3.0,52,0.00,,,0.00,0,Wunderground v.1.15,2013-08-23 02:20:00,
2013-08-22 19:30:00,78.4,59.3,29.75,ENE,63,2.0,5.0,52,0.00,,,0.00,0,Wunderground v.1.15,2013-08-23 02:30:00,
2013-08-22 19:40:00,77.5,59.0,29.75,ENE,57,1.0,1.0,53,0.00,,,0.00,0,Wunderground v.1.15,2013-08-23 02:40:00,
2013-08-22 19:50:00,76.8,57.8,29.76,NE,40,0.0,0.0,52,0.00,,,0.00,0,Wunderground v.1.15,2013-08-23 02:50:00,
2013-08-22 20:00:00,76.7,55.5,29.76,NNE,33,0.0,0.0,48,0.00,,,0.00,0,Wunderground v.1.15,2013-08-23 03:00:00,
2013-08-22 20:10:00,77.6,53.3,29.77,NNW,340,3.0,9.0,43,0.00,,,0.00,0,Wunderground v.1.15,2013-08-23 03:10:00,
2013-08-22 20:20:00,78.0,53.7,29.78,North,355,2.0,2.0,43,0.00,,,0.00,0,Wunderground v.1.15,2013-08-23 03:20:00,
2013-08-22 20:30:00,77.8,54.1,29.78,NNW,336,5.0,5.0,44,0.00,,,0.00,0,Wunderground v.1.15,2013-08-23 03:30:00,
2013-08-22 20:40:00,77.5,53.9,29.78,NW,315,5.0,7.0,44,0.00,,,0.00,0,Wunderground v.1.15,2013-08-23 03:40:00,
2013-08-22 20:50:00,77.6,52.7,29.79,NNW,329,8.0,11.0,42,0.00,,,0.00,0,Wunderground v.1.15,2013-08-23 03:50:00,
2013-08-22 21:00:00,77.6,52.0,29.80,NW,311,9.0,9.0,41,0.00,,,0.00,0,Wunderground v.1.15,2013-08-23 04:00:00,
2013-08-22 21:10:00,77.1,51.6,29.80,NW,309,2.0,2.0,41,0.00,,,0.00,0,Wunderground v.1.15,2013-08-23 04:10:00,
2013-08-22 21:20:00,76.6,51.8,29.80,NNW,333,0.0,0.0,42,0.00,,,0.00,0,Wunderground v.1.15,2013-08-23 04:20:00,
2013-08-22 21:30:00,75.9,52.4,29.80,North,5,0.0,0.0,44,0.00,,,0.00,0,Wunderground v.1.15,2013-08-23 04:30:00,
2013-08-22 21:40:00,74.9,53.3,29.81,NNW,336,0.0,1.0,47,0.00,,,0.00,0,Wunderground v.1.15,2013-08-23 04:40:00,
2013-08-22 21:50:00,74.6,53.0,29.81,North,355,0.0,0.0,47,0.00,,,0.00,0,Wunderground v.1.15,2013-08-23 04:50:00,
2013-08-22 22:00:00,74.4,53.4,29.81,North,355,0.0,0.0,48,0.00,,,0.00,0,Wunderground v.1.15,2013-08-23 05:00:00,
2013-08-22 22:10:00,73.7,54.4,29.81,North,355,0.0,15.0,51,0.00,,,0.00,0,Wunderground v.1.15,2013-08-23 05:10:00,
2013-08-22 22:20:00,73.1,54.4,29.80,North,355,0.0,15.0,52,0.00,,,0.00,0,Wunderground v.1.15,2013-08-23 05:20:00,
2013-08-22 22:30:00,72.2,54.6,29.80,North,5,0.0,15.0,54,0.00,,,0.00,0,Wunderground v.1.15,2013-08-23 05:30:00,
2013-08-22 22:40:00,71.7,54.7,29.80,North,5,0.0,15.0,55,0.00,,,0.00,0,Wunderground v.1.15,2013-08-23 05:40:00,
2013-08-22 22:50:00,71.2,55.2,29.80,North,5,0.0,15.0,57,0.00,,,0.00,0,Wunderground v.1.15,2013-08-23 05:50:00,
2013-08-22 23:00:00,70.5,55.9,29.80,North,5,0.0,15.0,60,0.00,,,0.00,0,Wunderground v.1.15,2013-08-23 06:00:00,
2013-08-22 23:10:00,69.7,55.6,29.80,North,5,0.0,15.0,61,0.00,,,0.00,0,Wunderground v.1.15,2013-08-23 06:10:00,
2013-08-22 23:20:00,68.9,55.8,29.80,North,5,0.0,15.0,63,0.00,,,0.00,0,Wunderground v.1.15,2013-08-23 06:20:00,
2013-08-22 23:30:00,68.5,55.8,29.80,North,5,0.0,15.0,64,0.00,,,0.00,0,Wunderground v.1.15,2013-08-23 06:30:00,
2013-08-22 23:40:00,68.3,56.1,29.80,North,5,0.0,15.0,65,0.00,,,0.00,0,Wunderground v.1.15,2013-08-23 06:40:00,
2013-08-22 23:50:00,68.1,55.9,29.80,North,5,0.0,15.0,65,0.00,,,0.00,0,Wunderground v.1.15,2013-08-23 06:50:00,